createdAt,value
2017-12-23T00:00:05.141Z,74.2
2017-12-23T00:15:05.555Z,76.3
2017-12-23T00:30:04.688Z,76.3
2017-12-23T00:45:04.808Z,75.4
2017-12-23T01:00:07.648Z,76.3
2017-12-23T01:15:05.592Z,75.4
2017-12-23T01:30:04.797Z,75.7
2017-12-23T01:45:05.215Z,76.2
2017-12-23T02:00:05.303Z,74.4
2017-12-23T02:15:05.413Z,75.8
2017-12-23T02:30:07.674Z,74.9
2017-12-23T02:45:04.679Z,74.4
2017-12-23T03:00:04.609Z,75.1
2017-12-23T03:15:07.665Z,74.9
2017-12-23T03:30:04.777Z,74.9
2017-12-23T03:45:08.444Z,75.4
2017-12-23T04:00:05.505Z,74.7
2017-12-23T04:15:06.160Z,74.5
2017-12-23T04:30:06.570Z,75.3
2017-12-23T04:45:05.113Z,75.4
2017-12-23T05:00:05.817Z,75.5
2017-12-23T05:15:05.630Z,75.1
2017-12-23T05:30:04.370Z,75
2017-12-23T05:45:07.936Z,75.3
2017-12-23T06:00:08.147Z,74.5
2017-12-23T06:15:06.155Z,75.1
2017-12-23T06:30:04.854Z,74.6
2017-12-23T06:45:05.564Z,74.3
2017-12-23T07:00:05.313Z,75.3
2017-12-23T07:15:04.850Z,75.2
2017-12-23T07:30:05.043Z,75.9
2017-12-23T07:45:04.540Z,74.9
2017-12-23T08:00:05.243Z,74.9
2017-12-23T08:15:04.716Z,75
2017-12-23T08:30:08.157Z,74.8
2017-12-23T08:45:05.807Z,75.7
2017-12-23T09:00:04.689Z,75
2017-12-23T09:15:04.802Z,74.4
2017-12-23T09:30:07.312Z,73.6
2017-12-23T09:45:05.763Z,73.8
2017-12-23T10:00:05.714Z,72.8
2017-12-23T10:15:06.061Z,72.6
2017-12-23T10:30:05.192Z,73.2
2017-12-23T10:45:07.559Z,72.1
2017-12-23T11:00:04.894Z,72.2
2017-12-23T11:15:04.772Z,70.3
2017-12-23T11:30:04.631Z,71.3
2017-12-23T11:45:12.211Z,71.4
2017-12-23T12:00:08.090Z,71.3
2017-12-23T12:15:08.041Z,70.8
2017-12-23T12:30:06.365Z,71.7
2017-12-23T12:45:04.933Z,70
2017-12-23T13:00:06.244Z,70.5
2017-12-23T13:15:05.552Z,69.1
2017-12-23T13:30:05.327Z,68.7
2017-12-23T13:45:04.964Z,68.9
2017-12-23T14:00:04.460Z,69.5
2017-12-23T14:15:04.994Z,69.5
2017-12-23T14:30:05.092Z,68.8
2017-12-23T14:45:08.100Z,69.3
2017-12-23T15:00:04.991Z,70.4
2017-12-23T15:15:04.397Z,70.2
2017-12-23T15:30:06.063Z,70.4
2017-12-23T15:45:10.495Z,70.7
2017-12-23T16:00:07.993Z,70.9
2017-12-23T16:15:04.415Z,69.4
2017-12-23T16:30:05.027Z,70.8
2017-12-23T16:45:04.359Z,70.9
2017-12-23T17:00:04.244Z,71.1
2017-12-23T17:15:05.672Z,72
2017-12-23T17:30:04.249Z,71.6
2017-12-23T17:45:04.679Z,71.2
2017-12-23T18:00:05.487Z,71.1
2017-12-23T18:15:04.411Z,71.5
2017-12-23T18:30:05.131Z,71
2017-12-23T18:45:04.760Z,71.1
2017-12-23T19:00:05.186Z,71.4
2017-12-23T19:15:04.936Z,71.8
2017-12-23T19:30:05.357Z,71.6
2017-12-23T19:45:05.903Z,71.7
2017-12-23T20:00:04.782Z,72.3
2017-12-23T20:15:08.685Z,73.4
2017-12-23T20:30:05.541Z,73.3
2017-12-23T20:45:21.062Z,74.5
2017-12-23T21:00:04.992Z,73
2017-12-23T21:15:05.315Z,73.2
2017-12-23T21:30:04.601Z,72.9
2017-12-23T21:45:04.944Z,73.4
2017-12-23T22:00:04.730Z,72.7
2017-12-23T22:15:04.851Z,72.3
2017-12-23T22:30:04.651Z,74
2017-12-23T22:45:04.742Z,73.9
2017-12-23T23:00:05.231Z,73.7
2017-12-23T23:15:14.875Z,73.3
2017-12-23T23:30:05.624Z,73.7
2017-12-23T23:45:06.049Z,73.9
